Fort Dodge, IA

9:40 PM CDT on July 24, 2014 (GMT -0500)
Duncombe School area (KIAFORTD8) Elev 1109 ft | 42.51 °N, 94.18 °W | Change Station

Current weather conditions updated 7 seconds ago

Clear
Clear
64.9 °F
Feels Like 64.9 °F
N
0.0
Wind Variable Wind from NNE
Gusts 0.0 mph

Tomorrow is forecast to be Much Warmer than today.

Today
High -- | Low -- °F
--% Chance of Precip.
Yesterday
High -- | Low -- °F
Precip. -- in
6:00 AM 8:44 PM
Waning Crescent, 3% visible
Pressure 29.92 in
Visibility 10.0 miles
Clouds Clear
Dew Point 62 °F
Humidity 90%
Rainfall 0.00 in
Snow Depth Not available.
UV 0 out of 12
Pollen 5.70 out of 12
Air Quality Not available.
Flu Activity Not available.
METAR KFOD 250235Z AUTO 19005KT 10SM CLR 19/16 A2992 RMK AO1

More Conditions Fewer Conditions

Pressure 29.92 in
Visibility 10.0 miles
Clouds Clear
Dew Point 62 °F
Humidity 90%
Rainfall 0.00 in
Snow Depth Not available.
UV 0 out of 12
Pollen 5.70 out of 12
Air Quality Not available.
Flu Activity Not available.
METAR KFOD 250235Z AUTO 19005KT 10SM CLR 19/16 A2992 RMK AO1

More Conditions Fewer Conditions

10-Day Weather Forecast

Almanac

Astronomy

Jul. 24, 2014 Rise Set
Actual Time 6:00 AM CDT 8:44 PM CDT
Civil Twilight 5:28 AM CDT 9:17 PM CDT
Nautical Twilight 4:46 AM CDT 9:58 PM CDT
Astronomical Twilight 3:59 AM CDT 10:45 PM CDT
Moon 4:09 AM CDT (7/24) 6:59 PM CDT (7/24)
Length of Visible Light 15h 49m
Length of Day
14h 44m
Tomorrow will be 1m 55s shorter.
Waning Crescent, 3% of the Moon is Illuminated
Today
Waning Crescent
Jul 26
New
Aug 3
First Quarter
Aug 10
Full
Aug 17
Last Quarter

Today's Extremes

State Highs State Lows

Community

WunderPhotos

Upload Photos

1,737,218 photos uploaded!

Nearby

Snow Depth

Station Depth Elevation
No new snow has been reported.

Earthquake Activity

City Distance Mag. Time & Date
No recent earthquake activity has been reported nearby.
Minimum magnitude displayed is 2.5.

Coastal Water Temperatures

Place Temperature
No Stations Reporting

Nearby Weather Stations

Station Location Temp. Dew Point Humidity Wind Precip. Elev Updated Type
Duncombe School area, Fort Dodge, IA 64.9 °F 62 °F 90% NNE  at  0.0 mph 0.00 in / hr 1109 ft 9:40 PM CDT Rapid Fire
Expo Pool Area, Fort Dodge, IA 64.6 °F 61 °F 87% South  at  2.7 mph - / hr 1093 ft 9:28 PM CDT Normal
Badger IA, Badger, IA 63.3 °F 60 °F 90% SSW  at  0.0 mph 0.00 in / hr 1142 ft 9:40 PM CDT Normal
NW of Badger by DSM River, Badger, IA 62.8 °F 61 °F 94% ESE  at  0.0 mph 0.00 in / hr 1125 ft 9:39 PM CDT Rapid Fire
Pioneer Valley, Humboldt, IA 65.1 °F 62 °F 91% NE  at  1.6 mph 0.00 in / hr 1125 ft 9:39 PM CDT Normal
Dakota City, IA 63.9 °F 62 °F 92% ENE  at  0.0 mph 0.00 in / hr 1130 ft 9:31 PM CDT Normal
Lohrville NE, Lohrville, IA 66.4 °F 61 °F 84% ESE  at  7.6 mph 0.00 in / hr 1170 ft 9:40 PM CDT Rapid Fire

Show More Stations Show Fewer Stations